ENST

Details ICAO ENST (SSJ)
Name STOKKA
Region Norway
Timezone Europe/Oslo (UTC+1.0)
Plans Departing 10
Arriving 9
Stats Elevation 56 ft / 17 m (AMSL)
Location 65.956843° 12.468965°
Runways 1
Magnetic Variation 4.506° E
Sunrise 2017-12-12 09:31:02 UTC / 2017-12-12 10:31:02 Local
Sunset 2017-12-12 12:39:31 UTC / 2017-12-12 13:39:31 Local
Advertisement - Login to hide

Runways

ID Width Length Bearing (true) Bearing (mag) Surface Threshold Offset Overrun Length
03 98 ft / 30 m 3,551 ft / 1,082 m 24.76° 20.25° Asphalt 161 ft / 49 m 0 ft / 0 m
21 98 ft / 30 m 3,551 ft / 1,082 m 204.77° 200.26° Asphalt 177 ft / 54 m 0 ft / 0 m

Approach Navaids

Runway Type Ident Frequency Range Bearing (true) Bearing (mag) Slope Elevation
21 Localiser ST 109.90 MHz 18 nm / 33 km 198.13° 193.63° - 56 ft / 17 m (AMSL)

Map

Weather


0- 5 10 15 20 25 30 35+ Temperature / ° C

Clouds and Precipitation
Forecast for 2017-12-12 12:00 UTC. Updated an hour ago

Ground ~20,000 ft ~40,000 ft Winds

METAR

ENST 121220Z VRB01KT CAVOK M01/M10 Q0994 RMK WIND 300FT 03003KT

TAF

Not found

Frequencies

Tower 120.30 MHz AFIS
Warning: Do not use this data for real-world aviation or navigation. No guarantee of current accuracy is given.